sensor_id;sensor_type;location;lat;lon;timestamp;P1;durP1;ratioP1;P2;durP2;ratioP2
35644;SDS011;21764;52.042;6.830;2022-09-29T06:13:45;41.13;;;26.42;;
35644;SDS011;21764;52.042;6.830;2022-09-29T06:18:47;34.42;;;24.30;;
35644;SDS011;21764;52.042;6.830;2022-09-29T06:23:49;32.38;;;23.52;;
35644;SDS011;21764;52.042;6.830;2022-09-29T06:28:51;25.65;;;19.40;;
35644;SDS011;21764;52.042;6.830;2022-09-29T06:33:52;24.33;;;17.63;;
35644;SDS011;21764;52.042;6.830;2022-09-29T06:38:55;22.15;;;15.65;;
35644;SDS011;21764;52.042;6.830;2022-09-29T06:43:56;21.17;;;14.38;;
35644;SDS011;21764;52.042;6.830;2022-09-29T06:48:57;17.23;;;12.88;;
35644;SDS011;21764;52.042;6.830;2022-09-29T06:53:57;17.30;;;12.90;;
35644;SDS011;21764;52.042;6.830;2022-09-29T06:58:58;16.17;;;13.07;;
35644;SDS011;21764;52.042;6.830;2022-09-29T07:03:59;25.33;;;12.18;;
35644;SDS011;21764;52.042;6.830;2022-09-29T07:09:01;19.98;;;11.52;;
35644;SDS011;21764;52.042;6.830;2022-09-29T07:14:02;19.20;;;11.25;;
35644;SDS011;21764;52.042;6.830;2022-09-29T07:19:02;13.43;;;10.60;;
35644;SDS011;21764;52.042;6.830;2022-09-29T07:24:03;12.90;;;10.05;;
35644;SDS011;21764;52.042;6.830;2022-09-29T07:29:04;12.75;;;10.73;;
35644;SDS011;21764;52.042;6.830;2022-09-29T07:34:05;16.58;;;10.55;;
35644;SDS011;21764;52.042;6.830;2022-09-29T07:39:05;16.10;;;10.52;;
35644;SDS011;21764;52.042;6.830;2022-09-29T07:44:06;11.70;;;9.77;;
35644;SDS011;21764;52.042;6.830;2022-09-29T07:49:07;15.70;;;10.43;;
35644;SDS011;21764;52.042;6.830;2022-09-29T07:54:07;13.98;;;10.02;;
35644;SDS011;21764;52.042;6.830;2022-09-29T07:59:09;14.23;;;10.15;;
35644;SDS011;21764;52.042;6.830;2022-09-29T08:04:10;16.75;;;10.50;;
35644;SDS011;21764;52.042;6.830;2022-09-29T08:09:11;15.73;;;10.65;;
35644;SDS011;21764;52.042;6.830;2022-09-29T08:14:12;12.23;;;10.77;;
35644;SDS011;21764;52.042;6.830;2022-09-29T08:19:16;12.47;;;10.07;;
35644;SDS011;21764;52.042;6.830;2022-09-29T08:24:17;13.13;;;9.27;;
35644;SDS011;21764;52.042;6.830;2022-09-29T08:29:18;16.50;;;9.18;;
35644;SDS011;21764;52.042;6.830;2022-09-29T08:34:19;14.77;;;10.10;;
35644;SDS011;21764;52.042;6.830;2022-09-29T08:39:19;11.73;;;9.07;;
35644;SDS011;21764;52.042;6.830;2022-09-29T08:44:26;14.48;;;8.90;;
35644;SDS011;21764;52.042;6.830;2022-09-29T08:49:43;14.90;;;9.60;;
35644;SDS011;21764;52.042;6.830;2022-09-29T09:00:17;10.25;;;9.05;;
35644;SDS011;21764;52.042;6.830;2022-09-29T09:05:36;11.60;;;9.23;;
35644;SDS011;21764;52.042;6.830;2022-09-29T09:21:18;10.70;;;8.13;;
35644;SDS011;21764;52.042;6.830;2022-09-29T09:26:34;11.15;;;7.78;;
35644;SDS011;21764;52.042;6.830;2022-09-29T09:31:39;13.00;;;7.88;;
35644;SDS011;21764;52.042;6.830;2022-09-29T09:36:47;10.57;;;7.95;;
35644;SDS011;21764;52.042;6.830;2022-09-29T09:41:54;11.05;;;6.80;;
35644;SDS011;21764;52.042;6.830;2022-09-29T09:57:25;7.47;;;5.70;;
35644;SDS011;21764;52.042;6.830;2022-09-29T10:02:29;10.95;;;5.65;;
35644;SDS011;21764;52.042;6.830;2022-09-29T10:07:31;9.63;;;5.95;;
35644;SDS011;21764;52.042;6.830;2022-09-29T10:12:31;9.20;;;6.20;;
35644;SDS011;21764;52.042;6.830;2022-09-29T10:17:36;7.90;;;6.45;;
35644;SDS011;21764;52.042;6.830;2022-09-29T10:22:41;11.25;;;6.80;;
35644;SDS011;21764;52.042;6.830;2022-09-29T10:27:42;8.70;;;6.68;;
35644;SDS011;21764;52.042;6.830;2022-09-29T10:32:47;12.10;;;7.32;;
35644;SDS011;21764;52.042;6.830;2022-09-29T10:38:00;16.38;;;6.32;;
35644;SDS011;21764;52.042;6.830;2022-09-29T10:43:47;15.18;;;6.90;;
35644;SDS011;21764;52.042;6.830;2022-09-29T10:48:32;8.15;;;6.15;;
35644;SDS011;21764;52.042;6.830;2022-09-29T10:53:33;11.93;;;6.20;;
35644;SDS011;21764;52.042;6.830;2022-09-29T11:03:54;11.33;;;5.77;;
35644;SDS011;21764;52.042;6.830;2022-09-29T11:09:06;9.48;;;6.20;;
35644;SDS011;21764;52.042;6.830;2022-09-29T11:19:35;9.55;;;5.22;;
35644;SDS011;21764;52.042;6.830;2022-09-29T11:40:34;6.25;;;4.60;;
35644;SDS011;21764;52.042;6.830;2022-09-29T11:45:59;6.97;;;4.20;;
35644;SDS011;21764;52.042;6.830;2022-09-29T11:56:37;12.52;;;7.07;;
35644;SDS011;21764;52.042;6.830;2022-09-29T12:06:51;7.40;;;5.57;;
35644;SDS011;21764;52.042;6.830;2022-09-29T12:17:13;8.93;;;5.47;;
35644;SDS011;21764;52.042;6.830;2022-09-29T12:22:17;4.50;;;3.70;;
35644;SDS011;21764;52.042;6.830;2022-09-29T12:27:38;6.50;;;3.20;;
35644;SDS011;21764;52.042;6.830;2022-09-29T12:38:36;7.40;;;4.10;;
35644;SDS011;21764;52.042;6.830;2022-09-29T12:43:47;10.80;;;4.40;;
35644;SDS011;21764;52.042;6.830;2022-09-29T12:54:38;6.45;;;4.45;;
35644;SDS011;21764;52.042;6.830;2022-09-29T13:17:38;8.02;;;4.45;;
35644;SDS011;21764;52.042;6.830;2022-09-29T13:22:52;6.57;;;3.85;;
35644;SDS011;21764;52.042;6.830;2022-09-29T13:28:21;5.07;;;3.03;;
35644;SDS011;21764;52.042;6.830;2022-09-29T13:33:24;4.35;;;3.38;;
35644;SDS011;21764;52.042;6.830;2022-09-29T13:38:29;7.13;;;3.63;;
35644;SDS011;21764;52.042;6.830;2022-09-29T13:44:01;4.07;;;3.35;;
35644;SDS011;21764;52.042;6.830;2022-09-29T13:59:25;6.70;;;2.92;;
35644;SDS011;21764;52.042;6.830;2022-09-29T14:09:52;6.80;;;3.25;;
35644;SDS011;21764;52.042;6.830;2022-09-29T14:14:53;4.70;;;3.17;;
35644;SDS011;21764;52.042;6.830;2022-09-29T14:30:18;4.13;;;2.72;;
35644;SDS011;21764;52.042;6.830;2022-09-29T14:35:35;4.75;;;2.70;;
35644;SDS011;21764;52.042;6.830;2022-09-29T14:41:03;6.85;;;2.47;;
35644;SDS011;21764;52.042;6.830;2022-09-29T14:51:34;2.70;;;2.30;;
35644;SDS011;21764;52.042;6.830;2022-09-29T15:02:33;3.78;;;2.22;;
35644;SDS011;21764;52.042;6.830;2022-09-29T15:07:38;10.02;;;2.30;;
35644;SDS011;21764;52.042;6.830;2022-09-29T15:12:40;4.30;;;2.00;;
35644;SDS011;21764;52.042;6.830;2022-09-29T15:23:02;3.17;;;2.38;;
35644;SDS011;21764;52.042;6.830;2022-09-29T15:28:44;10.52;;;4.97;;
35644;SDS011;21764;52.042;6.830;2022-09-29T15:33:45;3.92;;;2.50;;
35644;SDS011;21764;52.042;6.830;2022-09-29T15:38:50;3.88;;;2.58;;
35644;SDS011;21764;52.042;6.830;2022-09-29T15:49:06;3.67;;;2.15;;
35644;SDS011;21764;52.042;6.830;2022-09-29T15:54:18;5.32;;;3.38;;
35644;SDS011;21764;52.042;6.830;2022-09-29T15:59:19;5.22;;;3.25;;
35644;SDS011;21764;52.042;6.830;2022-09-29T16:04:20;4.05;;;3.20;;
35644;SDS011;21764;52.042;6.830;2022-09-29T16:09:21;7.05;;;3.72;;
35644;SDS011;21764;52.042;6.830;2022-09-29T16:14:23;8.93;;;3.25;;
35644;SDS011;21764;52.042;6.830;2022-09-29T16:19:28;6.82;;;3.35;;
35644;SDS011;21764;52.042;6.830;2022-09-29T16:24:32;5.22;;;3.20;;
35644;SDS011;21764;52.042;6.830;2022-09-29T16:29:35;9.55;;;3.15;;
35644;SDS011;21764;52.042;6.830;2022-09-29T16:34:36;11.80;;;5.80;;
35644;SDS011;21764;52.042;6.830;2022-09-29T16:39:44;8.45;;;4.53;;
35644;SDS011;21764;52.042;6.830;2022-09-29T16:44:47;10.85;;;4.22;;
35644;SDS011;21764;52.042;6.830;2022-09-29T16:49:53;7.35;;;4.07;;
35644;SDS011;21764;52.042;6.830;2022-09-29T17:00:11;7.95;;;4.72;;
35644;SDS011;21764;52.042;6.830;2022-09-29T17:05:12;9.00;;;4.35;;
35644;SDS011;21764;52.042;6.830;2022-09-29T17:10:14;11.68;;;7.40;;
35644;SDS011;21764;52.042;6.830;2022-09-29T17:15:17;14.10;;;8.18;;
35644;SDS011;21764;52.042;6.830;2022-09-29T17:20:19;12.32;;;9.02;;
35644;SDS011;21764;52.042;6.830;2022-09-29T17:25:28;21.10;;;10.27;;
35644;SDS011;21764;52.042;6.830;2022-09-29T17:30:28;14.50;;;9.07;;
35644;SDS011;21764;52.042;6.830;2022-09-29T17:35:33;12.48;;;7.25;;
35644;SDS011;21764;52.042;6.830;2022-09-29T17:40:50;16.45;;;9.90;;
35644;SDS011;21764;52.042;6.830;2022-09-29T17:45:57;15.18;;;9.85;;
35644;SDS011;21764;52.042;6.830;2022-09-29T17:50:59;14.45;;;9.57;;
35644;SDS011;21764;52.042;6.830;2022-09-29T17:56:02;16.83;;;9.18;;
35644;SDS011;21764;52.042;6.830;2022-09-29T18:01:03;13.98;;;9.23;;
35644;SDS011;21764;52.042;6.830;2022-09-29T18:06:04;20.77;;;12.52;;
35644;SDS011;21764;52.042;6.830;2022-09-29T18:11:05;24.35;;;13.63;;
35644;SDS011;21764;52.042;6.830;2022-09-29T18:16:09;21.08;;;14.00;;
35644;SDS011;21764;52.042;6.830;2022-09-29T18:21:15;24.25;;;14.05;;
35644;SDS011;21764;52.042;6.830;2022-09-29T18:26:17;23.60;;;15.40;;
35644;SDS011;21764;52.042;6.830;2022-09-29T18:31:24;24.40;;;16.65;;
35644;SDS011;21764;52.042;6.830;2022-09-29T18:36:27;28.80;;;16.10;;
35644;SDS011;21764;52.042;6.830;2022-09-29T18:41:29;50.08;;;31.55;;
35644;SDS011;21764;52.042;6.830;2022-09-29T18:46:30;32.30;;;19.23;;
35644;SDS011;21764;52.042;6.830;2022-09-29T18:51:32;33.20;;;22.02;;
35644;SDS011;21764;52.042;6.830;2022-09-29T18:56:33;44.97;;;23.15;;
35644;SDS011;21764;52.042;6.830;2022-09-29T19:01:34;55.38;;;31.02;;
35644;SDS011;21764;52.042;6.830;2022-09-29T19:06:34;47.67;;;28.38;;
35644;SDS011;21764;52.042;6.830;2022-09-29T19:11:35;42.72;;;25.73;;
35644;SDS011;21764;52.042;6.830;2022-09-29T19:16:36;46.15;;;29.13;;
35644;SDS011;21764;52.042;6.830;2022-09-29T19:21:36;49.17;;;30.33;;
35644;SDS011;21764;52.042;6.830;2022-09-29T19:26:37;67.93;;;37.72;;
35644;SDS011;21764;52.042;6.830;2022-09-29T19:31:38;48.28;;;30.17;;
35644;SDS011;21764;52.042;6.830;2022-09-29T19:36:38;63.30;;;33.33;;
35644;SDS011;21764;52.042;6.830;2022-09-29T19:41:39;57.65;;;30.55;;
35644;SDS011;21764;52.042;6.830;2022-09-29T19:46:40;65.50;;;34.47;;
35644;SDS011;21764;52.042;6.830;2022-09-29T19:51:41;42.78;;;25.10;;
35644;SDS011;21764;52.042;6.830;2022-09-29T19:57:02;41.13;;;25.38;;
35644;SDS011;21764;52.042;6.830;2022-09-29T20:02:10;47.55;;;26.27;;
35644;SDS011;21764;52.042;6.830;2022-09-29T20:07:12;45.03;;;24.15;;
35644;SDS011;21764;52.042;6.830;2022-09-29T20:12:12;34.63;;;22.80;;
35644;SDS011;21764;52.042;6.830;2022-09-29T20:17:13;35.03;;;23.25;;
35644;SDS011;21764;52.042;6.830;2022-09-29T20:22:14;32.38;;;22.15;;
35644;SDS011;21764;52.042;6.830;2022-09-29T20:27:16;32.42;;;20.83;;
35644;SDS011;21764;52.042;6.830;2022-09-29T20:32:17;28.00;;;19.50;;
35644;SDS011;21764;52.042;6.830;2022-09-29T20:37:19;38.60;;;19.42;;
35644;SDS011;21764;52.042;6.830;2022-09-29T20:42:20;33.80;;;18.65;;
35644;SDS011;21764;52.042;6.830;2022-09-29T20:47:22;30.98;;;19.50;;
35644;SDS011;21764;52.042;6.830;2022-09-29T20:53:00;33.65;;;19.67;;
35644;SDS011;21764;52.042;6.830;2022-09-29T20:58:03;38.30;;;18.77;;
35644;SDS011;21764;52.042;6.830;2022-09-29T21:03:04;30.90;;;18.27;;
35644;SDS011;21764;52.042;6.830;2022-09-29T21:47:41;21.67;;;14.65;;
35644;SDS011;21764;52.042;6.830;2022-09-29T21:53:01;26.20;;;15.35;;
